createdAt,value
2023-04-07T00:02:25.773Z,19.73
2023-04-07T00:04:53.865Z,23.67
2023-04-07T00:07:21.894Z,23.77
2023-04-07T00:09:49.936Z,24.23
2023-04-07T00:12:17.949Z,23.37
2023-04-07T00:14:47.222Z,24.23
2023-04-07T00:17:15.123Z,26.47
2023-04-07T00:19:43.883Z,24.23
2023-04-07T00:22:11.840Z,26.40
2023-04-07T00:24:39.580Z,27.50
2023-04-07T00:27:07.473Z,28.30
2023-04-07T00:29:35.403Z,28.43
2023-04-07T00:32:04.865Z,27.90
2023-04-07T00:34:33.541Z,29.10
2023-04-07T00:37:01.245Z,28.40
2023-04-07T00:39:28.976Z,29.27
2023-04-07T00:41:58.189Z,28.57
2023-04-07T00:44:27.526Z,27.73
2023-04-07T00:46:55.466Z,27.70
2023-04-07T00:49:24.682Z,30.57
2023-04-07T00:51:52.496Z,27.93
2023-04-07T00:54:20.797Z,28.27
2023-04-07T00:56:48.633Z,28.03
2023-04-07T00:59:16.922Z,28.00
2023-04-07T01:01:47.737Z,27.03
2023-04-07T01:04:23.780Z,29.13
2023-04-07T01:07:00.397Z,26.87
2023-04-07T01:09:39.732Z,28.17
2023-04-07T01:12:14.744Z,29.43
2023-04-07T01:14:48.145Z,26.70
2023-04-07T01:17:40.399Z,33.03
2023-04-07T01:20:12.591Z,28.10
2023-04-07T01:22:47.067Z,27.43
2023-04-07T01:25:30.449Z,28.67
2023-04-07T01:28:15.195Z,31.00
2023-04-07T01:30:45.933Z,30.80
2023-04-07T01:33:15.757Z,30.73
2023-04-07T01:35:44.358Z,27.73
2023-04-07T01:38:13.621Z,31.03
2023-04-07T01:40:42.262Z,28.17
2023-04-07T01:43:11.152Z,29.57
2023-04-07T01:45:40.638Z,28.67
2023-04-07T01:48:10.964Z,29.07
2023-04-07T01:50:40.666Z,27.43
2023-04-07T01:53:09.329Z,28.70
2023-04-07T01:55:37.144Z,26.93
2023-04-07T01:58:09.866Z,28.03
2023-04-07T02:00:42.373Z,30.97
2023-04-07T02:03:21.832Z,28.80
2023-04-07T02:05:53.545Z,25.60
2023-04-07T02:08:25.437Z,28.97
2023-04-07T02:10:54.541Z,29.00
2023-04-07T02:13:23.580Z,25.70
2023-04-07T02:15:54.715Z,28.83
2023-04-07T02:18:25.600Z,30.70
2023-04-07T02:20:54.503Z,31.57
2023-04-07T02:23:22.379Z,30.90
2023-04-07T02:25:50.190Z,31.53
2023-04-07T02:28:18.011Z,29.67
2023-04-07T02:30:46.873Z,31.40
2023-04-07T02:33:14.680Z,30.23
2023-04-07T02:35:45.976Z,30.60
2023-04-07T02:38:13.888Z,29.10
2023-04-07T02:40:41.980Z,29.53
2023-04-07T02:43:09.766Z,32.23
2023-04-07T02:45:37.632Z,32.87
2023-04-07T02:48:05.818Z,30.03
2023-04-07T02:50:33.565Z,31.30
2023-04-07T02:53:02.884Z,32.10
2023-04-07T02:55:30.640Z,33.37
2023-04-07T02:57:58.384Z,33.37
2023-04-07T03:00:36.604Z,34.43
2023-04-07T03:03:10.383Z,33.23
2023-04-07T03:05:40.979Z,35.60
2023-04-07T03:08:13.099Z,39.00
2023-04-07T03:10:41.622Z,37.03
2023-04-07T03:13:12.725Z,33.03
2023-04-07T03:15:41.075Z,29.57
2023-04-07T03:18:08.985Z,33.53
2023-04-07T03:20:37.041Z,32.10
2023-04-07T03:23:13.039Z,32.60
2023-04-07T03:25:40.974Z,30.00
2023-04-07T03:28:09.247Z,32.27
2023-04-07T03:30:39.658Z,29.93
2023-04-07T03:33:08.302Z,32.17
2023-04-07T03:35:36.115Z,33.57
2023-04-07T03:38:03.965Z,29.23
2023-04-07T03:40:33.715Z,31.60
2023-04-07T03:43:01.840Z,28.57
2023-04-07T03:45:30.533Z,32.10
2023-04-07T03:47:58.784Z,29.50
2023-04-07T03:50:26.815Z,31.40
2023-04-07T03:53:08.289Z,33.60
2023-04-07T03:55:38.925Z,29.97
2023-04-07T03:58:14.804Z,30.10
2023-04-07T04:00:43.920Z,30.80
2023-04-07T04:03:13.530Z,28.07
2023-04-07T04:06:04.305Z,31.03
2023-04-07T04:08:33.778Z,29.33
2023-04-07T04:11:03.484Z,32.00
2023-04-07T04:13:37.487Z,24.83
2023-04-07T04:16:07.593Z,28.87
2023-04-07T04:18:37.737Z,30.77
2023-04-07T04:21:08.629Z,25.07
2023-04-07T04:23:37.832Z,26.93
2023-04-07T04:26:07.152Z,28.13
2023-04-07T04:28:35.712Z,30.43
2023-04-07T04:31:06.025Z,26.83
2023-04-07T04:33:40.467Z,25.80
2023-04-07T04:36:08.639Z,25.73
2023-04-07T04:38:36.776Z,25.23
2023-04-07T04:41:18.645Z,26.70
2023-04-07T04:43:47.982Z,25.83
2023-04-07T04:46:20.327Z,26.00
2023-04-07T04:48:49.406Z,25.37
2023-04-07T04:51:18.831Z,26.10
2023-04-07T04:53:51.146Z,23.60
2023-04-07T04:56:21.831Z,27.53
2023-04-07T04:58:51.012Z,24.97
2023-04-07T05:01:33.646Z,24.87
2023-04-07T05:04:10.738Z,26.87
2023-04-07T05:06:43.427Z,26.20
2023-04-07T05:09:13.900Z,24.80
2023-04-07T05:11:48.567Z,21.87
2023-04-07T05:14:16.752Z,22.17
2023-04-07T05:16:51.457Z,21.03
2023-04-07T05:19:23.599Z,20.77
2023-04-07T05:21:54.794Z,22.90
2023-04-07T05:24:26.097Z,22.83
2023-04-07T05:26:58.439Z,20.87
2023-04-07T05:29:27.216Z,19.33
2023-04-07T05:31:56.407Z,20.73
2023-04-07T05:34:24.892Z,21.10
2023-04-07T05:36:55.502Z,19.73
2023-04-07T05:39:23.277Z,19.27
2023-04-07T05:41:54.548Z,21.73
2023-04-07T05:44:27.510Z,21.80
2023-04-07T05:46:56.135Z,23.23
2023-04-07T05:49:26.587Z,21.60
2023-04-07T05:52:03.416Z,19.70
2023-04-07T05:54:31.811Z,19.43
2023-04-07T05:57:02.408Z,21.10
2023-04-07T05:59:33.263Z,19.20
2023-04-07T06:02:02.446Z,19.00
2023-04-07T06:04:31.607Z,22.43
2023-04-07T06:07:01.220Z,18.90
2023-04-07T06:09:29.104Z,20.70
2023-04-07T06:11:57.620Z,21.37
2023-04-07T06:14:25.927Z,20.27
2023-04-07T06:16:55.399Z,22.23
2023-04-07T06:19:23.857Z,23.57
2023-04-07T06:21:51.623Z,19.97
2023-04-07T06:24:22.645Z,20.10
2023-04-07T06:26:50.612Z,20.43
2023-04-07T06:29:18.495Z,24.20
2023-04-07T06:31:46.372Z,23.43
2023-04-07T06:34:16.506Z,20.70
2023-04-07T06:36:45.263Z,24.43
2023-04-07T06:39:13.894Z,21.13
2023-04-07T06:41:43.261Z,21.33
2023-04-07T06:44:11.551Z,21.27
2023-04-07T06:46:41.785Z,21.97
2023-04-07T06:49:09.837Z,22.03
2023-04-07T06:51:39.301Z,16.23
2023-04-07T06:54:12.765Z,23.20
2023-04-07T06:56:40.825Z,18.30
2023-04-07T06:59:08.890Z,19.97
2023-04-07T07:01:37.707Z,19.93
2023-04-07T07:04:07.104Z,19.27
2023-04-07T07:06:34.977Z,19.53
2023-04-07T07:09:04.553Z,19.33
2023-04-07T07:11:32.306Z,18.57
2023-04-07T07:14:00.128Z,23.77
2023-04-07T07:16:28.955Z,20.57
2023-04-07T07:18:56.690Z,20.43
2023-04-07T07:21:24.442Z,22.40
2023-04-07T07:23:52.229Z,19.67
2023-04-07T07:26:22.031Z,24.13
2023-04-07T07:28:49.940Z,19.13
2023-04-07T07:31:17.839Z,17.93
2023-04-07T07:33:51.528Z,18.17
2023-04-07T07:36:19.498Z,20.47
2023-04-07T07:38:48.061Z,19.77
2023-04-07T07:41:16.165Z,19.80
2023-04-07T07:43:45.601Z,19.83
2023-04-07T07:46:13.621Z,19.60
2023-04-07T07:48:41.548Z,18.77
2023-04-07T07:51:09.348Z,17.60
2023-04-07T07:53:37.493Z,17.57
2023-04-07T07:56:05.442Z,20.57
2023-04-07T07:58:33.254Z,18.93
2023-04-07T08:01:02.649Z,18.83
2023-04-07T08:03:30.641Z,19.27
2023-04-07T08:05:58.560Z,18.90
2023-04-07T08:08:26.361Z,22.33
2023-04-07T08:10:54.180Z,22.10
2023-04-07T08:13:21.897Z,22.00
2023-04-07T08:15:49.884Z,22.20
2023-04-07T08:18:19.444Z,23.17
2023-04-07T08:20:47.874Z,21.17
2023-04-07T08:23:15.895Z,23.27
2023-04-07T08:25:43.694Z,22.93
2023-04-07T08:28:11.493Z,23.33
2023-04-07T08:30:39.441Z,20.23
2023-04-07T08:33:07.442Z,18.97
2023-04-07T08:35:36.887Z,24.53
2023-04-07T08:38:05.737Z,21.60
2023-04-07T08:40:33.834Z,20.47
2023-04-07T08:43:06.194Z,20.57
2023-04-07T08:45:35.125Z,22.80
2023-04-07T08:48:12.302Z,25.20
2023-04-07T08:50:45.391Z,22.93
2023-04-07T08:53:14.422Z,20.23
2023-04-07T08:55:42.590Z,20.13
2023-04-07T08:58:12.422Z,19.20
2023-04-07T09:00:42.844Z,23.30
2023-04-07T09:03:11.950Z,21.93
2023-04-07T09:05:41.912Z,22.40
2023-04-07T09:08:09.668Z,19.27
2023-04-07T09:10:37.893Z,20.30
2023-04-07T09:13:06.175Z,23.97
2023-04-07T09:15:35.815Z,19.40
2023-04-07T09:18:05.097Z,22.40
2023-04-07T09:21:02.425Z,23.80
2023-04-07T09:23:32.529Z,23.47
2023-04-07T09:26:01.783Z,24.30
2023-04-07T09:28:46.653Z,20.50
2023-04-07T09:31:14.665Z,17.87
2023-04-07T09:33:42.937Z,20.13
2023-04-07T09:36:12.342Z,17.87
2023-04-07T09:38:41.664Z,19.73
2023-04-07T09:41:11.276Z,21.33
2023-04-07T09:43:41.634Z,20.60
2023-04-07T09:46:13.805Z,22.70
2023-04-07T09:48:42.652Z,20.93
2023-04-07T09:51:13.819Z,24.27
2023-04-07T09:53:47.693Z,21.33
2023-04-07T09:56:17.325Z,22.03
2023-04-07T09:58:47.176Z,22.97
2023-04-07T10:01:16.798Z,27.23
2023-04-07T10:03:47.408Z,24.17
2023-04-07T10:06:17.968Z,22.43
2023-04-07T10:08:46.124Z,20.03
2023-04-07T10:11:14.204Z,24.10
2023-04-07T10:13:42.514Z,22.50
2023-04-07T10:16:10.799Z,22.90
2023-04-07T10:18:42.937Z,22.20
2023-04-07T10:21:15.620Z,28.13
2023-04-07T10:23:56.152Z,23.70
2023-04-07T10:26:33.302Z,21.77
2023-04-07T10:29:06.014Z,18.87
2023-04-07T10:31:35.142Z,20.53
2023-04-07T10:34:05.878Z,21.07
2023-04-07T10:36:34.882Z,22.90
2023-04-07T10:39:24.279Z,19.57
2023-04-07T10:41:53.415Z,18.70
2023-04-07T10:44:50.965Z,19.17
2023-04-07T10:47:22.045Z,15.30
2023-04-07T10:50:19.397Z,16.37
2023-04-07T10:52:49.545Z,14.93
2023-04-07T10:55:34.980Z,13.17
2023-04-07T10:58:24.664Z,14.47
2023-04-07T11:01:24.473Z,16.00
2023-04-07T11:03:59.166Z,12.10
2023-04-07T11:06:30.332Z,14.57
2023-04-07T11:09:01.132Z,12.73
2023-04-07T11:11:44.722Z,11.63
2023-04-07T11:14:13.203Z,14.17
2023-04-07T11:16:46.162Z,14.10
2023-04-07T11:19:19.354Z,12.30
2023-04-07T11:21:47.947Z,14.80
2023-04-07T11:24:34.185Z,11.87
2023-04-07T11:27:04.072Z,15.30
2023-04-07T11:29:33.028Z,13.97
2023-04-07T11:32:03.523Z,13.07
2023-04-07T11:34:32.275Z,13.87
2023-04-07T11:37:19.630Z,12.47
2023-04-07T11:39:54.897Z,13.17
2023-04-07T11:42:34.566Z,15.60
2023-04-07T11:45:02.390Z,15.47
2023-04-07T11:47:37.215Z,15.17
2023-04-07T11:50:06.407Z,15.33
2023-04-07T11:52:42.907Z,13.40
2023-04-07T11:55:21.522Z,16.60
2023-04-07T11:57:52.310Z,14.83
2023-04-07T12:00:21.523Z,16.23
2023-04-07T12:02:49.408Z,18.90
2023-04-07T12:05:17.667Z,18.13
2023-04-07T12:07:55.436Z,16.30
2023-04-07T12:10:25.572Z,15.33
2023-04-07T12:12:54.729Z,15.20
2023-04-07T12:15:22.949Z,19.70
2023-04-07T12:17:50.817Z,19.30
2023-04-07T12:20:19.054Z,17.27
2023-04-07T12:22:47.522Z,17.00
2023-04-07T12:25:15.413Z,20.50
2023-04-07T12:27:43.943Z,17.23
2023-04-07T12:30:14.392Z,18.87
2023-04-07T12:32:42.667Z,18.33
2023-04-07T12:35:10.562Z,18.77
2023-04-07T12:37:39.607Z,18.80
2023-04-07T12:40:08.874Z,21.90
2023-04-07T12:42:36.943Z,23.13
2023-04-07T12:45:05.434Z,23.03
2023-04-07T12:47:35.051Z,19.83
2023-04-07T12:50:03.685Z,20.13
2023-04-07T12:52:32.016Z,20.87
2023-04-07T12:54:59.778Z,19.60
2023-04-07T12:57:27.570Z,22.67
2023-04-07T12:59:55.406Z,22.37
2023-04-07T13:02:23.502Z,23.40
2023-04-07T13:04:53.013Z,21.33
2023-04-07T13:07:21.932Z,20.80
2023-04-07T13:09:49.672Z,21.33
2023-04-07T13:12:17.940Z,22.83
2023-04-07T13:14:56.875Z,21.60
2023-04-07T13:17:29.000Z,17.90
2023-04-07T13:19:59.205Z,25.77
2023-04-07T13:22:27.549Z,23.33
2023-04-07T13:24:55.634Z,22.03
2023-04-07T13:27:23.405Z,21.37
2023-04-07T13:29:51.139Z,23.07
2023-04-07T13:32:18.947Z,22.33
2023-04-07T13:34:46.720Z,21.83
2023-04-07T13:37:16.640Z,22.00
2023-04-07T13:39:44.461Z,20.47
2023-04-07T13:42:12.746Z,19.80
2023-04-07T13:44:40.484Z,20.80
2023-04-07T13:47:08.736Z,27.80
2023-04-07T13:49:36.839Z,26.70
2023-04-07T13:52:04.678Z,25.67
2023-04-07T13:54:33.950Z,22.50
2023-04-07T13:57:01.900Z,23.87
2023-04-07T13:59:29.657Z,26.50
2023-04-07T14:01:57.549Z,23.63
2023-04-07T14:04:25.462Z,22.43
2023-04-07T14:06:53.279Z,22.47
2023-04-07T14:09:21.394Z,21.23
2023-04-07T14:11:50.582Z,21.87
2023-04-07T14:14:18.367Z,21.33
2023-04-07T14:16:46.169Z,20.33
2023-04-07T14:19:14.248Z,21.30
2023-04-07T14:21:42.124Z,21.90
2023-04-07T14:24:09.926Z,21.10
2023-04-07T14:26:37.754Z,21.60
2023-04-07T14:29:06.895Z,28.07
2023-04-07T14:31:35.100Z,21.90
2023-04-07T14:34:02.945Z,27.70
2023-04-07T14:36:31.588Z,23.17
2023-04-07T14:38:59.483Z,24.73
2023-04-07T14:41:27.226Z,26.47
2023-04-07T14:43:56.721Z,26.87
2023-04-07T14:46:27.414Z,25.83
2023-04-07T14:48:55.919Z,29.10
2023-04-07T14:51:23.638Z,29.77
2023-04-07T14:53:56.122Z,26.77
2023-04-07T14:56:25.756Z,29.47
2023-04-07T14:58:53.486Z,25.33
2023-04-07T15:01:21.529Z,26.57
2023-04-07T15:03:52.733Z,23.83
2023-04-07T15:06:21.162Z,27.03
2023-04-07T15:08:49.016Z,25.67
2023-04-07T15:11:16.724Z,25.17
2023-04-07T15:13:44.465Z,26.47
2023-04-07T15:16:14.099Z,28.50
2023-04-07T15:18:44.437Z,21.87
2023-04-07T15:21:15.599Z,19.53
2023-04-07T15:23:44.102Z,23.63
2023-04-07T15:26:11.827Z,25.83
2023-04-07T15:28:40.080Z,22.70
2023-04-07T15:31:09.898Z,23.27
2023-04-07T15:33:38.900Z,20.60
2023-04-07T15:36:07.958Z,18.97
2023-04-07T15:38:38.875Z,22.27
2023-04-07T15:41:07.113Z,22.37
2023-04-07T15:43:35.605Z,22.33
2023-04-07T15:46:03.372Z,22.30
2023-04-07T15:48:31.442Z,25.23
2023-04-07T15:50:59.358Z,21.00
2023-04-07T15:53:27.240Z,19.63
2023-04-07T15:55:56.415Z,24.93
2023-04-07T15:58:24.217Z,22.07
2023-04-07T16:00:52.642Z,25.50
2023-04-07T16:03:20.727Z,24.00
2023-04-07T16:05:48.594Z,21.67
2023-04-07T16:08:16.296Z,26.67
2023-04-07T16:10:44.433Z,26.97
2023-04-07T16:13:13.631Z,24.77
2023-04-07T16:15:41.931Z,24.20
2023-04-07T16:18:12.077Z,24.43
2023-04-07T16:20:39.982Z,21.70
2023-04-07T16:23:07.735Z,17.73
2023-04-07T16:25:36.344Z,20.07
2023-04-07T16:28:04.337Z,24.10
2023-04-07T16:30:33.602Z,20.87
2023-04-07T16:33:01.570Z,21.00
2023-04-07T16:35:32.588Z,20.50
2023-04-07T16:38:04.100Z,20.87
2023-04-07T16:40:32.035Z,24.83
2023-04-07T16:42:59.935Z,25.27
2023-04-07T16:45:28.034Z,21.97
2023-04-07T16:47:57.342Z,28.67
2023-04-07T16:50:25.065Z,29.47
2023-04-07T16:52:53.034Z,25.40
2023-04-07T16:55:21.113Z,26.27
2023-04-07T16:57:50.093Z,29.93
2023-04-07T17:00:19.295Z,30.33
2023-04-07T17:02:47.177Z,26.73
2023-04-07T17:05:17.261Z,29.60
2023-04-07T17:07:44.989Z,30.73
2023-04-07T17:10:13.985Z,24.37
2023-04-07T17:12:41.710Z,26.47
2023-04-07T17:15:10.204Z,26.03
2023-04-07T17:17:39.240Z,23.07
2023-04-07T17:20:08.223Z,25.87
2023-04-07T17:22:37.425Z,28.30
2023-04-07T17:25:06.567Z,33.47
2023-04-07T17:27:34.812Z,30.83
2023-04-07T17:30:03.129Z,24.23
2023-04-07T17:32:30.993Z,23.93
2023-04-07T17:34:58.917Z,21.33
2023-04-07T17:37:26.795Z,21.47
2023-04-07T17:39:56.005Z,20.80
2023-04-07T17:42:23.871Z,19.33
2023-04-07T17:44:53.703Z,20.87
2023-04-07T17:47:21.664Z,18.73
2023-04-07T17:49:49.403Z,16.37
2023-04-07T17:52:17.512Z,17.10
2023-04-07T17:54:45.263Z,15.83
2023-04-07T17:57:15.920Z,17.90
2023-04-07T17:59:43.752Z,16.90
2023-04-07T18:02:11.813Z,17.50
2023-04-07T18:04:40.474Z,19.77
2023-04-07T18:07:08.786Z,18.73
2023-04-07T18:09:36.833Z,19.27
2023-04-07T18:12:04.854Z,20.30
2023-04-07T18:14:34.351Z,19.87
2023-04-07T18:17:02.262Z,22.37
2023-04-07T18:19:31.224Z,23.20
2023-04-07T18:22:00.177Z,22.73
2023-04-07T18:24:27.995Z,23.17
2023-04-07T18:26:56.756Z,24.77
2023-04-07T18:29:24.688Z,27.23
2023-04-07T18:31:54.118Z,28.77
2023-04-07T18:34:21.918Z,24.67
2023-04-07T18:36:50.100Z,26.10
2023-04-07T18:39:17.834Z,24.70
2023-04-07T18:41:47.520Z,29.70
2023-04-07T18:44:15.964Z,30.17
2023-04-07T18:46:44.180Z,30.20
2023-04-07T18:49:13.534Z,28.23
2023-04-07T18:51:42.426Z,31.40
2023-04-07T18:54:10.340Z,28.00
2023-04-07T18:56:38.422Z,29.13
2023-04-07T18:59:07.224Z,30.47
2023-04-07T19:01:35.142Z,25.23
2023-04-07T19:04:03.717Z,32.40
2023-04-07T19:06:33.624Z,28.33
2023-04-07T19:09:03.810Z,32.07
2023-04-07T19:11:31.551Z,29.57
2023-04-07T19:13:59.392Z,29.60
2023-04-07T19:16:27.588Z,29.27
2023-04-07T19:18:55.646Z,27.30
2023-04-07T19:21:23.536Z,30.93
2023-04-07T19:23:52.917Z,32.80
2023-04-07T19:26:21.412Z,30.47
2023-04-07T19:28:49.701Z,27.53
2023-04-07T19:31:18.101Z,33.83
2023-04-07T19:33:46.017Z,33.40
2023-04-07T19:36:14.129Z,32.10
2023-04-07T19:38:41.999Z,30.90
2023-04-07T19:41:11.377Z,34.20
2023-04-07T19:43:39.082Z,38.77
2023-04-07T19:46:08.874Z,32.90
2023-04-07T19:48:42.482Z,30.13
2023-04-07T19:51:10.248Z,29.33
2023-04-07T19:53:38.035Z,34.83
2023-04-07T19:56:06.181Z,36.07
2023-04-07T19:58:35.600Z,33.70
2023-04-07T20:01:04.491Z,38.57
2023-04-07T20:03:32.545Z,38.10
2023-04-07T20:06:01.075Z,33.10
2023-04-07T20:08:28.873Z,34.00
2023-04-07T20:10:56.763Z,38.83
2023-04-07T20:13:24.588Z,34.30
2023-04-07T20:15:53.831Z,36.53
2023-04-07T20:18:21.563Z,35.50
2023-04-07T20:20:50.296Z,33.17
2023-04-07T20:23:22.126Z,37.53
2023-04-07T20:25:50.036Z,33.77
2023-04-07T20:28:17.777Z,35.60
2023-04-07T20:30:46.333Z,38.77
2023-04-07T20:33:15.708Z,33.00
2023-04-07T20:35:43.654Z,38.63
2023-04-07T20:38:11.607Z,35.57
2023-04-07T20:40:39.462Z,37.80
2023-04-07T20:43:07.477Z,32.33
2023-04-07T20:45:35.250Z,33.93
2023-04-07T20:48:03.128Z,35.17
2023-04-07T20:50:33.229Z,32.47
2023-04-07T20:53:01.305Z,30.90
2023-04-07T20:55:29.540Z,36.23
2023-04-07T20:57:57.417Z,34.20
2023-04-07T21:00:25.983Z,32.90
2023-04-07T21:02:54.384Z,34.50
2023-04-07T21:05:22.423Z,36.33
2023-04-07T21:07:51.559Z,40.27
2023-04-07T21:10:19.608Z,39.47
2023-04-07T21:12:47.524Z,36.20
2023-04-07T21:15:15.785Z,40.00
2023-04-07T21:17:43.727Z,43.20
2023-04-07T21:20:12.569Z,34.47
2023-04-07T21:22:40.481Z,40.57
2023-04-07T21:25:10.726Z,40.87
2023-04-07T21:27:38.579Z,41.80
2023-04-07T21:30:07.260Z,41.13
2023-04-07T21:32:35.207Z,45.67
2023-04-07T21:35:03.740Z,42.87
2023-04-07T21:37:31.950Z,41.40
2023-04-07T21:39:59.716Z,48.33
2023-04-07T21:42:28.916Z,48.93
2023-04-07T21:44:57.039Z,48.00
2023-04-07T21:47:24.976Z,47.03
2023-04-07T21:49:53.399Z,46.10
2023-04-07T21:52:21.297Z,47.23
2023-04-07T21:54:49.102Z,45.50
2023-04-07T21:57:16.927Z,45.63
2023-04-07T21:59:46.188Z,51.50
2023-04-07T22:02:14.422Z,54.40
2023-04-07T22:04:42.837Z,45.73
2023-04-07T22:07:11.568Z,47.30
2023-04-07T22:09:39.443Z,50.03
2023-04-07T22:12:07.267Z,49.97
2023-04-07T22:14:35.025Z,49.43
2023-04-07T22:17:04.386Z,54.07
2023-04-07T22:19:32.275Z,48.83
2023-04-07T22:22:00.497Z,55.73
2023-04-07T22:24:28.357Z,47.27
2023-04-07T22:26:57.267Z,49.97
2023-04-07T22:29:25.118Z,50.83
2023-04-07T22:31:53.059Z,45.80
2023-04-07T22:34:22.631Z,41.90
2023-04-07T22:36:50.374Z,48.03
2023-04-07T22:39:18.152Z,46.30
2023-04-07T22:41:45.938Z,50.67
2023-04-07T22:44:13.910Z,49.33
2023-04-07T22:46:41.889Z,45.57
2023-04-07T22:49:09.803Z,45.93
2023-04-07T22:51:39.066Z,47.87
2023-04-07T22:54:06.839Z,48.30
2023-04-07T22:56:34.608Z,43.40
2023-04-07T22:59:05.642Z,48.83
2023-04-07T23:01:34.305Z,48.80
2023-04-07T23:04:02.314Z,44.73
2023-04-07T23:06:30.013Z,51.33
2023-04-07T23:08:59.616Z,45.57
2023-04-07T23:11:27.396Z,45.23
2023-04-07T23:13:55.302Z,46.67
2023-04-07T23:16:24.313Z,47.70
2023-04-07T23:18:52.352Z,45.67
2023-04-07T23:21:20.157Z,40.07
2023-04-07T23:23:48.669Z,36.37
2023-04-07T23:26:17.940Z,39.33
2023-04-07T23:28:46.283Z,36.90
2023-04-07T23:31:14.405Z,38.63
2023-04-07T23:33:42.321Z,38.47
2023-04-07T23:36:10.225Z,30.63
2023-04-07T23:38:39.497Z,36.20
2023-04-07T23:41:07.656Z,30.63
2023-04-07T23:43:36.849Z,27.83
2023-04-07T23:46:04.888Z,26.60
2023-04-07T23:48:32.703Z,27.27
2023-04-07T23:51:00.892Z,27.07
2023-04-07T23:53:28.853Z,24.97
2023-04-07T23:55:56.875Z,22.97
2023-04-07T23:58:25.293Z,25.10
